X  Sluiten METAR luchtvaart weer gegevens      LFQQ Lille-Lesquin Airport
Temperatuur
10°C Temperatuur
2°C Dauwpunt
58% Vochtigheid



Wind
35 KM/U
22 MPH
10 M/S
19 KTS



250°
WZW
Huidig weer

Helder Helder
Luchtdruk 1006.77 (hPa) - 29.73 (inHg)
Zicht 6 (mijl) - 9.7 (km)
Vliegveld
Vliegveld code LFQQ

Locatie : Lille-Lesquin Airport
Afstand: 45 (km)

Metar:
LFQQ 151830Z AUTO 25019G30KT CAVOK 10/02 Q1007 TEMPO 3000 SHRA BKN014 BKN020CB

Tijd: 15-04-2024 18:30 CEST